createdAt,value
2023-04-02T12:44:50.346Z,8.90
2023-04-02T12:45:27.244Z,7.60
2023-04-02T12:46:05.338Z,7.60
2023-04-02T12:46:39.439Z,7.90
2023-04-02T12:47:12.855Z,7.40
2023-04-02T12:47:45.187Z,7.50
2023-04-02T12:48:18.013Z,7.10
2023-04-02T12:48:50.216Z,6.50
2023-04-02T12:49:33.331Z,6.50
2023-04-02T12:50:06.828Z,7.40
2023-04-02T12:50:41.371Z,7.00
2023-04-02T12:51:13.358Z,6.10
2023-04-02T12:51:46.919Z,7.20
2023-04-02T12:52:21.352Z,7.90
2023-04-02T12:52:55.209Z,8.50
2023-04-02T12:53:35.870Z,6.80
2023-04-02T12:54:53.958Z,6.60
2023-04-02T12:55:27.231Z,6.90
2023-04-02T12:55:59.222Z,6.90
2023-04-02T12:56:31.396Z,6.30
2023-04-02T12:57:32.065Z,9.20
2023-04-02T12:58:04.051Z,6.80
2023-04-02T12:58:38.225Z,7.40
2023-04-02T12:59:30.740Z,7.40
2023-04-02T13:00:22.601Z,7.10
2023-04-02T13:01:18.076Z,6.90
2023-04-02T13:02:02.056Z,7.10
2023-04-02T13:02:44.829Z,6.30
2023-04-02T13:03:21.592Z,6.00
2023-04-02T13:04:11.889Z,7.20
2023-04-02T13:04:52.947Z,5.60
2023-04-02T13:05:42.293Z,6.50
2023-04-02T13:06:23.628Z,6.60
2023-04-02T13:06:56.452Z,6.40
2023-04-02T13:07:31.495Z,6.60
2023-04-02T13:08:05.149Z,7.10
2023-04-02T13:08:42.146Z,5.80
2023-04-02T13:09:45.288Z,6.50
2023-04-02T13:10:27.207Z,5.90
2023-04-02T13:11:01.748Z,6.70
2023-04-02T13:11:39.226Z,6.20
2023-04-02T13:12:35.404Z,6.40
2023-04-02T13:13:21.171Z,6.80
2023-04-02T13:14:00.269Z,6.60
2023-04-02T13:14:32.318Z,7.10
2023-04-02T13:15:28.663Z,6.40
2023-04-02T13:16:04.829Z,8.10
2023-04-02T13:16:39.402Z,6.00
2023-04-02T13:17:37.788Z,7.50
2023-04-02T13:18:12.589Z,7.40
2023-04-02T13:18:47.206Z,6.00
2023-04-02T13:19:25.523Z,7.30
2023-04-02T13:20:36.749Z,7.00
2023-04-02T13:21:20.906Z,7.40
2023-04-02T13:21:54.866Z,6.20
2023-04-02T13:22:31.678Z,6.60
2023-04-02T13:23:24.398Z,6.30
2023-04-02T13:23:56.318Z,7.20
2023-04-02T13:24:31.606Z,5.40
2023-04-02T13:25:04.067Z,5.50
2023-04-02T13:25:36.753Z,5.30
2023-04-02T13:26:08.662Z,6.30
2023-04-02T13:26:41.319Z,5.90
2023-04-02T13:27:13.369Z,6.80
2023-04-02T13:27:45.622Z,5.20
2023-04-02T13:28:18.296Z,5.30
2023-04-02T13:29:45.960Z,5.40
2023-04-02T13:30:22.993Z,6.60
2023-04-02T13:30:55.277Z,5.00
2023-04-02T13:31:29.129Z,4.70
2023-04-02T13:32:04.204Z,5.70
2023-04-02T13:32:36.888Z,4.70
2023-04-02T13:33:08.755Z,5.40
2023-04-02T13:33:41.073Z,4.60
2023-04-02T13:34:13.115Z,4.50
2023-04-02T13:34:45.164Z,4.50
2023-04-02T13:35:17.329Z,5.00
2023-04-02T13:35:49.496Z,5.70
2023-04-02T13:36:21.863Z,4.70
2023-04-02T13:36:54.864Z,5.10
2023-04-02T13:37:27.315Z,5.90
2023-04-02T13:38:02.557Z,4.90
2023-04-02T13:38:35.049Z,4.50
2023-04-02T13:39:07.738Z,4.50
2023-04-02T13:39:40.344Z,5.50
2023-04-02T13:40:18.820Z,5.30
2023-04-02T13:40:51.310Z,4.20
2023-04-02T13:41:27.529Z,4.30
2023-04-02T13:42:02.647Z,4.10
2023-04-02T13:42:35.084Z,4.80
2023-04-02T13:43:15.032Z,3.70
2023-04-02T13:43:47.089Z,3.60
2023-04-02T13:44:22.712Z,4.30
2023-04-02T13:44:54.860Z,4.40
2023-04-02T13:45:27.861Z,4.50
2023-04-02T13:46:07.134Z,4.60
2023-04-02T13:46:39.143Z,4.20
2023-04-02T13:47:14.435Z,4.20
2023-04-02T13:47:46.326Z,4.60
2023-04-02T13:48:18.536Z,3.90
2023-04-02T13:48:52.438Z,5.20
2023-04-02T13:49:25.756Z,3.80
2023-04-02T13:49:57.879Z,4.30
2023-04-02T13:50:33.009Z,4.10
2023-04-02T13:51:05.303Z,5.10
2023-04-02T13:51:46.431Z,3.80
2023-04-02T13:52:18.379Z,3.90
2023-04-02T13:52:51.857Z,3.80
2023-04-02T13:53:32.931Z,3.90
2023-04-02T13:54:17.967Z,3.50
2023-04-02T13:54:55.864Z,4.30
2023-04-02T13:55:32.629Z,4.20
2023-04-02T13:56:05.195Z,3.50
2023-04-02T13:56:37.957Z,4.00
2023-04-02T13:57:10.450Z,3.80
2023-04-02T13:57:42.388Z,6.00
2023-04-02T13:58:14.634Z,4.00
2023-04-02T13:58:46.776Z,5.40
2023-04-02T13:59:18.845Z,4.40
2023-04-02T13:59:50.775Z,3.90
2023-04-02T14:00:23.749Z,4.30
2023-04-02T14:00:56.440Z,3.70
2023-04-02T14:01:28.605Z,5.00
2023-04-02T14:02:17.259Z,4.00
2023-04-02T14:02:54.452Z,4.10
2023-04-02T14:03:26.430Z,3.70
2023-04-02T14:03:58.933Z,4.20
2023-04-02T14:04:37.761Z,3.30
2023-04-02T14:05:39.959Z,3.20
2023-04-02T14:06:29.503Z,3.10
2023-04-02T14:07:23.342Z,2.80
2023-04-02T14:08:09.378Z,3.10
2023-04-02T14:08:47.370Z,3.20
2023-04-02T14:09:35.897Z,3.10
2023-04-02T14:10:22.280Z,2.80
2023-04-02T14:10:57.325Z,3.50
2023-04-02T14:12:05.624Z,3.50
2023-04-02T14:12:44.008Z,3.20
2023-04-02T14:13:47.852Z,2.20
2023-04-02T14:14:25.189Z,2.60
2023-04-02T14:15:15.824Z,2.60
2023-04-02T14:15:59.904Z,2.70
2023-04-02T14:16:55.858Z,3.00
2023-04-02T14:17:40.273Z,3.50
2023-04-02T14:18:41.088Z,2.70
2023-04-02T14:19:40.395Z,3.40
2023-04-02T14:20:34.620Z,2.60
2023-04-02T14:21:28.930Z,3.40
2023-04-02T14:22:26.263Z,3.40
2023-04-02T14:23:07.044Z,2.50
2023-04-02T14:23:41.836Z,4.80
2023-04-02T14:24:41.958Z,2.60
2023-04-02T14:25:30.799Z,2.60
2023-04-02T14:26:30.917Z,3.80
2023-04-02T14:27:12.186Z,2.80
2023-04-02T14:28:13.732Z,2.00
2023-04-02T14:29:33.079Z,2.60
2023-04-02T14:30:11.292Z,2.30
2023-04-02T14:31:12.903Z,2.90
2023-04-02T14:33:01.471Z,2.70
2023-04-02T14:33:49.290Z,3.30
2023-04-02T14:34:39.576Z,2.40
2023-04-02T14:35:27.089Z,3.40
2023-04-02T14:36:11.520Z,3.60
2023-04-02T14:36:58.323Z,3.40
2023-04-02T14:38:03.454Z,3.40
2023-04-02T14:38:58.441Z,4.10
2023-04-02T14:39:41.167Z,3.10
2023-04-02T14:40:15.742Z,4.00
2023-04-02T14:40:55.653Z,3.50
2023-04-02T14:41:37.984Z,4.20
2023-04-02T14:42:16.167Z,4.00
2023-04-02T14:43:03.647Z,3.90
2023-04-02T14:43:44.061Z,3.90
2023-04-02T14:44:21.202Z,3.90
2023-04-02T14:45:12.216Z,3.20
2023-04-02T14:46:01.820Z,4.30
2023-04-02T14:46:38.012Z,4.00
2023-04-02T14:47:25.599Z,3.40
2023-04-02T14:48:02.947Z,3.40
2023-04-02T14:49:00.100Z,3.30
2023-04-02T14:49:39.510Z,3.80
2023-04-02T14:50:27.738Z,3.90
2023-04-02T14:51:24.135Z,3.30
2023-04-02T14:51:56.197Z,5.10
2023-04-02T14:52:33.150Z,4.50
2023-04-02T14:53:37.075Z,4.60
2023-04-02T14:54:15.434Z,3.50
2023-04-02T14:55:03.191Z,3.70
2023-04-02T14:55:47.994Z,4.00
2023-04-02T14:56:23.456Z,3.10
2023-04-02T14:57:03.503Z,3.30
2023-04-02T14:57:48.543Z,5.80
2023-04-02T14:58:28.808Z,3.20
2023-04-02T14:59:25.554Z,4.50
2023-04-02T15:00:23.885Z,3.50
2023-04-02T15:01:25.060Z,5.40
2023-04-02T15:02:03.134Z,4.60
2023-04-02T15:02:44.425Z,4.10
2023-04-02T15:03:30.626Z,4.30
2023-04-02T15:04:14.483Z,5.80
2023-04-02T15:05:03.224Z,4.60
2023-04-02T15:05:42.049Z,4.10
2023-04-02T15:06:23.256Z,4.90
2023-04-02T15:07:02.839Z,4.20
2023-04-02T15:07:48.212Z,3.90
2023-04-02T15:08:46.708Z,5.50
2023-04-02T15:09:28.100Z,4.10
2023-04-02T15:10:27.946Z,4.40
2023-04-02T15:11:05.765Z,4.30
2023-04-02T15:12:13.354Z,4.70
2023-04-02T15:12:48.099Z,4.80
2023-04-02T15:13:26.575Z,4.70
2023-04-02T15:14:14.679Z,4.70
2023-04-02T15:14:53.904Z,5.30
2023-04-02T15:15:45.414Z,4.90
2023-04-02T15:16:26.103Z,5.70
2023-04-02T15:16:58.206Z,5.60
2023-04-02T15:17:31.598Z,5.10
2023-04-02T15:18:08.890Z,5.50
2023-04-02T15:18:40.920Z,6.30
2023-04-02T15:19:16.069Z,6.60
2023-04-02T15:19:51.350Z,4.70
2023-04-02T15:20:24.835Z,5.20
2023-04-02T15:21:22.476Z,5.40
2023-04-02T15:22:05.290Z,5.30
2023-04-02T15:23:01.717Z,5.30
2023-04-02T15:23:55.006Z,4.90
2023-04-02T15:24:47.361Z,5.50
2023-04-02T15:25:42.605Z,7.50
2023-04-02T15:26:33.495Z,5.50
2023-04-02T15:27:21.844Z,6.30
2023-04-02T15:28:07.688Z,5.70
2023-04-02T15:29:28.359Z,6.60
2023-04-02T15:30:22.864Z,5.80
2023-04-02T15:31:03.331Z,5.80
2023-04-02T15:31:36.840Z,4.90
2023-04-02T15:32:33.875Z,5.10
2023-04-02T15:33:27.719Z,5.80
2023-04-02T15:34:03.129Z,5.80
2023-04-02T15:34:52.280Z,4.80
2023-04-02T15:35:52.127Z,6.10
2023-04-02T15:36:36.039Z,5.60
2023-04-02T15:37:32.649Z,5.70
2023-04-02T15:38:43.912Z,5.10
2023-04-02T15:39:35.531Z,5.90
2023-04-02T15:40:18.974Z,5.20
2023-04-02T15:41:09.330Z,6.50
2023-04-02T15:41:57.254Z,4.60
2023-04-02T15:42:53.519Z,5.30
2023-04-02T15:43:44.699Z,5.10
2023-04-02T15:44:16.730Z,5.60
2023-04-02T15:45:09.107Z,5.30
2023-04-02T15:45:50.853Z,5.10
2023-04-02T15:46:47.811Z,5.00
2023-04-02T15:47:28.588Z,5.60
2023-04-02T15:48:08.705Z,5.50
2023-04-02T15:48:49.426Z,5.20
2023-04-02T15:50:23.136Z,5.50
2023-04-02T15:51:57.771Z,5.60
2023-04-02T15:52:42.810Z,6.70
2023-04-02T15:53:55.509Z,5.50
2023-04-02T15:54:36.216Z,5.80
2023-04-02T15:55:36.372Z,6.80
2023-04-02T15:56:15.680Z,5.90
2023-04-02T15:56:51.019Z,6.40
2023-04-02T15:57:41.601Z,7.00
2023-04-02T15:58:35.571Z,6.50
2023-04-02T15:59:27.891Z,6.40
2023-04-02T16:00:19.720Z,6.60
2023-04-02T16:01:19.364Z,6.80
2023-04-02T16:02:05.346Z,5.70
2023-04-02T16:02:51.098Z,5.90
2023-04-02T16:03:39.668Z,7.10
2023-04-02T16:04:15.922Z,5.80
2023-04-02T16:05:03.469Z,6.50
2023-04-02T16:05:41.362Z,5.70
2023-04-02T16:06:26.048Z,6.20
2023-04-02T16:07:20.278Z,6.40
2023-04-02T16:08:10.849Z,6.80
2023-04-02T16:09:07.290Z,6.90
2023-04-02T16:10:10.196Z,8.00
2023-04-02T16:10:43.354Z,6.80
2023-04-02T16:11:16.254Z,8.90
2023-04-02T16:11:55.577Z,7.80
2023-04-02T16:12:29.243Z,7.00
2023-04-02T16:13:08.266Z,6.80
2023-04-02T16:13:43.403Z,8.20
2023-04-02T16:14:27.142Z,7.20
2023-04-02T16:15:11.065Z,7.40
2023-04-02T16:16:06.719Z,7.00
2023-04-02T16:16:41.960Z,7.20
2023-04-02T16:17:27.900Z,7.50
2023-04-02T16:18:32.556Z,7.50
2023-04-02T16:19:17.197Z,8.20
2023-04-02T16:19:54.251Z,7.60
2023-04-02T16:20:36.682Z,8.40
2023-04-02T16:21:12.233Z,9.50
2023-04-02T16:21:54.210Z,7.90
2023-04-02T16:22:32.447Z,8.60
2023-04-02T16:23:13.760Z,8.60
2023-04-02T16:23:45.733Z,10.10
2023-04-02T16:24:17.865Z,8.40
2023-04-02T16:25:01.874Z,8.80
2023-04-02T16:25:45.768Z,8.60
2023-04-02T16:26:26.887Z,7.90
2023-04-02T16:27:04.869Z,8.30
2023-04-02T16:28:03.131Z,8.00
2023-04-02T16:29:07.524Z,8.90
2023-04-02T16:29:55.690Z,9.40
2023-04-02T16:30:49.850Z,8.90
2023-04-02T16:31:38.266Z,8.80
2023-04-02T16:32:43.357Z,9.70
2023-04-02T16:33:49.645Z,8.90
2023-04-02T16:34:24.475Z,10.40
2023-04-02T16:35:41.888Z,8.10
2023-04-02T16:36:23.166Z,9.00
2023-04-02T16:37:09.247Z,8.00
2023-04-02T16:38:13.773Z,9.10
2023-04-02T16:39:01.136Z,9.40
2023-04-02T16:39:52.482Z,7.90
2023-04-02T16:41:34.041Z,7.70
2023-04-02T16:42:34.863Z,9.00
2023-04-02T16:43:09.482Z,8.20
2023-04-02T16:44:03.276Z,8.50
2023-04-02T16:44:59.563Z,10.40
2023-04-02T16:46:11.388Z,10.40
2023-04-02T16:46:55.536Z,8.60
2023-04-02T16:48:02.160Z,9.10
2023-04-02T16:48:50.490Z,8.70
2023-04-02T16:49:37.651Z,9.40
2023-04-02T16:50:38.970Z,8.50
2023-04-02T16:51:30.955Z,10.00
2023-04-02T16:52:18.353Z,9.20
2023-04-02T16:53:10.163Z,9.50
2023-04-02T16:54:01.528Z,7.80
2023-04-02T16:54:37.310Z,10.70
2023-04-02T16:55:14.782Z,9.70
2023-04-02T16:56:24.382Z,7.80
2023-04-02T16:57:18.316Z,8.70
2023-04-02T16:58:09.507Z,7.70
2023-04-02T16:59:20.644Z,8.30
2023-04-02T16:59:58.467Z,11.50
2023-04-02T17:01:21.935Z,7.80
2023-04-02T17:02:35.816Z,8.60
2023-04-02T17:03:32.959Z,8.50
2023-04-02T17:04:13.181Z,7.60
2023-04-02T17:05:03.905Z,9.20
2023-04-02T17:05:39.021Z,9.10
2023-04-02T17:06:23.489Z,8.00
2023-04-02T17:07:10.194Z,8.00
2023-04-02T17:08:04.452Z,8.20
2023-04-02T17:08:40.506Z,7.10
2023-04-02T17:09:18.697Z,7.70
2023-04-02T17:09:53.922Z,9.10
2023-04-02T17:11:01.305Z,8.60
2023-04-02T17:11:41.071Z,7.30
2023-04-02T17:12:39.601Z,10.10
2023-04-02T17:13:22.410Z,9.60
2023-04-02T17:14:08.181Z,8.70
2023-04-02T17:14:52.762Z,8.70
2023-04-02T17:15:28.723Z,8.70
2023-04-02T17:16:18.064Z,9.00
2023-04-02T17:16:58.681Z,7.30
2023-04-02T17:17:31.187Z,8.40
2023-04-02T17:18:13.135Z,8.20
2023-04-02T17:18:49.399Z,8.20
2023-04-02T17:19:25.675Z,9.70
2023-04-02T17:20:00.559Z,8.30
2023-04-02T17:20:32.792Z,8.40
2023-04-02T17:21:12.510Z,8.60
2023-04-02T17:21:48.823Z,8.50
2023-04-02T17:22:22.404Z,7.00
2023-04-02T17:22:55.859Z,8.60
2023-04-02T17:23:29.256Z,8.70
2023-04-02T17:24:14.042Z,9.00
2023-04-02T17:24:55.767Z,9.50
2023-04-02T17:25:37.301Z,9.00
2023-04-02T17:26:10.926Z,8.10
2023-04-02T17:26:51.165Z,8.50
2023-04-02T17:27:36.144Z,9.20
2023-04-02T17:28:14.832Z,7.90
2023-04-02T17:28:50.272Z,8.80
2023-04-02T17:29:36.543Z,8.80
2023-04-02T17:30:16.749Z,9.50
2023-04-02T17:30:52.818Z,9.20
2023-04-02T17:31:30.301Z,8.30
2023-04-02T17:32:06.017Z,8.50
2023-04-02T17:32:38.344Z,10.90
2023-04-02T17:33:15.850Z,9.70
2023-04-02T17:33:48.787Z,9.40
2023-04-02T17:34:23.508Z,9.20
2023-04-02T17:35:31.843Z,10.50
2023-04-02T17:36:23.269Z,8.30
2023-04-02T17:37:23.133Z,11.50
2023-04-02T17:38:13.451Z,7.80
2023-04-02T17:39:35.269Z,8.20
2023-04-02T17:40:27.910Z,7.20
2023-04-02T17:41:26.274Z,9.80
2023-04-02T17:42:09.509Z,7.80
2023-04-02T17:43:09.642Z,9.90
2023-04-02T17:43:48.042Z,9.20
2023-04-02T17:44:19.973Z,10.20
2023-04-02T17:45:20.901Z,12.60
2023-04-02T17:45:56.446Z,7.60
2023-04-02T17:46:35.560Z,8.30
2023-04-02T17:47:07.890Z,8.30
2023-04-02T17:47:57.136Z,7.90
2023-04-02T17:48:45.924Z,8.70
2023-04-02T17:49:36.663Z,8.00
2023-04-02T17:50:12.006Z,8.30
2023-04-02T17:51:16.737Z,9.00
2023-04-02T17:52:03.221Z,8.00
2023-04-02T17:52:43.066Z,7.30
2023-04-02T17:53:41.444Z,8.50
2023-04-02T17:54:22.586Z,7.40
2023-04-02T17:55:40.311Z,7.60
2023-04-02T17:56:35.274Z,6.80
2023-04-02T17:57:22.358Z,7.40
2023-04-02T17:58:15.142Z,7.80
2023-04-02T17:59:06.294Z,7.80
2023-04-02T17:59:38.711Z,7.80
2023-04-02T18:00:17.546Z,9.00
2023-04-02T18:01:11.122Z,7.30
2023-04-02T18:02:04.663Z,7.50
2023-04-02T18:03:15.714Z,8.90
2023-04-02T18:04:00.247Z,8.60
2023-04-02T18:04:47.768Z,8.20
2023-04-02T18:05:36.395Z,8.80
2023-04-02T18:06:26.867Z,8.30
2023-04-02T18:07:24.657Z,8.70
2023-04-02T18:08:14.217Z,8.80
2023-04-02T18:08:46.541Z,10.20
2023-04-02T18:09:34.771Z,8.60
2023-04-02T18:10:10.124Z,8.60
2023-04-02T18:10:42.104Z,8.90
2023-04-02T18:11:40.677Z,9.20
2023-04-02T18:12:34.396Z,9.20
2023-04-02T18:13:12.792Z,8.60
2023-04-02T18:13:59.343Z,8.90
2023-04-02T18:14:53.295Z,9.40
2023-04-02T18:15:38.217Z,9.60
2023-04-02T18:16:25.512Z,8.50
2023-04-02T18:17:25.698Z,9.80
2023-04-02T18:18:30.651Z,11.20
2023-04-02T18:19:22.558Z,10.10
2023-04-02T18:20:16.949Z,10.70
2023-04-02T18:21:01.485Z,10.20
2023-04-02T18:21:38.973Z,9.30
2023-04-02T18:22:31.093Z,8.50
2023-04-02T18:23:42.050Z,10.10
2023-04-02T18:24:46.476Z,8.80
2023-04-02T18:25:21.590Z,10.30
2023-04-02T18:26:13.955Z,10.10
2023-04-02T18:27:05.025Z,9.00
2023-04-02T18:28:07.893Z,8.50
2023-04-02T18:28:52.427Z,13.30
2023-04-02T18:29:39.141Z,9.70
2023-04-02T18:30:36.180Z,9.70
2023-04-02T18:31:28.024Z,15.90
2023-04-02T18:32:25.224Z,8.70
2023-04-02T18:33:03.656Z,9.50
2023-04-02T18:33:57.065Z,9.50
2023-04-02T18:34:36.832Z,9.20
2023-04-02T18:35:15.549Z,10.10
2023-04-02T18:36:09.071Z,8.10
2023-04-02T18:37:06.526Z,9.90
2023-04-02T18:37:43.273Z,8.40
2023-04-02T18:38:28.970Z,11.20
2023-04-02T18:39:26.312Z,9.00
2023-04-02T18:40:16.881Z,8.90
2023-04-02T18:41:16.529Z,9.00
2023-04-02T18:41:54.459Z,9.60
2023-04-02T18:42:51.398Z,9.70
2023-04-02T18:43:32.070Z,9.30
2023-04-02T18:45:31.272Z,11.40
2023-04-02T18:46:21.970Z,8.60
2023-04-02T18:47:02.807Z,10.20
2023-04-02T18:47:43.985Z,9.80
2023-04-02T18:48:40.480Z,10.20
2023-04-02T18:49:31.986Z,9.40
2023-04-02T18:50:28.392Z,9.70
2023-04-02T18:51:01.816Z,9.70
2023-04-02T18:51:38.933Z,11.30
2023-04-02T18:52:15.120Z,10.20
2023-04-02T18:52:48.216Z,9.30
2023-04-02T18:53:25.690Z,10.30
2023-04-02T18:54:00.588Z,9.20
2023-04-02T18:54:38.101Z,10.90
2023-04-02T18:55:22.013Z,11.40
2023-04-02T18:55:57.129Z,9.20
2023-04-02T18:56:31.644Z,9.40
2023-04-02T18:57:33.460Z,10.20
2023-04-02T18:58:12.428Z,10.20
2023-04-02T18:58:49.079Z,10.50
2023-04-02T18:59:49.471Z,9.40
2023-04-02T19:00:37.747Z,10.00
2023-04-02T19:01:15.666Z,10.70
2023-04-02T19:01:52.054Z,10.50
2023-04-02T19:03:13.651Z,9.60
2023-04-02T19:03:52.338Z,8.90
2023-04-02T19:04:32.400Z,8.80
2023-04-02T19:05:25.058Z,8.70
2023-04-02T19:06:02.928Z,8.60
2023-04-02T19:06:44.285Z,9.30
2023-04-02T19:07:21.206Z,9.00
2023-04-02T19:08:02.559Z,9.00
2023-04-02T19:08:53.639Z,8.90
2023-04-02T19:10:33.583Z,8.50
2023-04-02T19:11:19.862Z,8.50
2023-04-02T19:11:52.841Z,10.10
2023-04-02T19:12:25.094Z,9.20
2023-04-02T19:12:57.154Z,10.30
2023-04-02T19:13:29.826Z,10.60
2023-04-02T19:14:10.070Z,9.50
2023-04-02T19:14:42.245Z,9.60
2023-04-02T19:15:17.094Z,8.70
2023-04-02T19:16:15.634Z,8.90
2023-04-02T19:17:03.024Z,7.80
2023-04-02T19:18:04.713Z,9.60
2023-04-02T19:19:14.641Z,8.20
2023-04-02T19:19:53.649Z,8.20
2023-04-02T19:20:46.869Z,8.10
2023-04-02T19:21:42.051Z,9.70
2023-04-02T19:22:51.613Z,9.30
2023-04-02T19:23:46.322Z,8.80
2023-04-02T19:24:43.536Z,8.80
2023-04-02T19:25:41.887Z,8.90
2023-04-02T19:26:22.563Z,8.60
2023-04-02T19:26:54.583Z,9.40
2023-04-02T19:28:14.979Z,9.20
2023-04-02T19:29:15.722Z,7.80
2023-04-02T19:29:58.499Z,8.90
2023-04-02T19:30:52.287Z,8.10
2023-04-02T19:32:20.120Z,9.50
2023-04-02T19:33:10.737Z,9.40
2023-04-02T19:34:15.650Z,9.70
2023-04-02T19:35:06.743Z,8.80
2023-04-02T19:35:54.204Z,9.30
2023-04-02T19:36:41.536Z,10.60
2023-04-02T19:37:23.758Z,8.60
2023-04-02T19:38:13.917Z,9.60
2023-04-02T19:38:55.101Z,9.10
2023-04-02T19:39:42.103Z,9.40
2023-04-02T19:40:30.753Z,8.80
2023-04-02T19:41:36.068Z,9.70
2023-04-02T19:42:24.098Z,9.20
2023-04-02T19:42:56.764Z,9.50
2023-04-02T19:43:29.523Z,9.10
2023-04-02T19:44:02.221Z,10.10
2023-04-02T19:44:34.440Z,8.60
2023-04-02T19:45:31.968Z,9.40
2023-04-02T19:46:04.355Z,7.80
2023-04-02T19:46:37.748Z,9.30
2023-04-02T19:47:11.319Z,9.10
2023-04-02T19:47:43.643Z,8.80
2023-04-02T19:48:19.716Z,7.80
2023-04-02T19:49:14.064Z,9.30
2023-04-02T19:49:46.662Z,8.90
2023-04-02T19:50:18.679Z,7.90
2023-04-02T19:50:51.084Z,9.10
2023-04-02T19:51:23.941Z,8.10
2023-04-02T19:51:56.723Z,8.70
2023-04-02T19:52:28.787Z,8.00
2023-04-02T19:53:00.808Z,7.90
2023-04-02T19:53:33.833Z,10.20
2023-04-02T19:54:06.395Z,10.20
2023-04-02T19:54:39.431Z,7.80
2023-04-02T19:55:12.093Z,7.70
2023-04-02T19:55:45.620Z,7.60
2023-04-02T19:56:17.835Z,7.20
2023-04-02T19:56:50.523Z,7.00
2023-04-02T19:57:22.800Z,6.70
2023-04-02T19:58:04.470Z,8.10
2023-04-02T19:58:48.173Z,7.20
2023-04-02T19:59:21.400Z,7.50
2023-04-02T19:59:54.259Z,8.40
2023-04-02T20:00:27.307Z,8.80
2023-04-02T20:01:01.021Z,8.40
2023-04-02T20:01:33.599Z,7.80
2023-04-02T20:02:09.760Z,7.40
2023-04-02T20:02:42.101Z,7.40
2023-04-02T20:03:15.065Z,7.00
2023-04-02T20:03:47.309Z,7.60
2023-04-02T20:04:19.928Z,7.60
2023-04-02T20:04:52.629Z,6.70
2023-04-02T20:05:25.287Z,7.60
2023-04-02T20:05:59.179Z,7.80
2023-04-02T20:06:32.804Z,7.90
2023-04-02T20:07:05.495Z,7.50
2023-04-02T20:07:37.788Z,7.80
2023-04-02T20:08:10.985Z,8.40
2023-04-02T20:08:43.336Z,7.50
2023-04-02T20:09:16.149Z,7.40
2023-04-02T20:09:48.445Z,7.10
2023-04-02T20:10:22.962Z,7.40
2023-04-02T20:10:58.229Z,7.50
2023-04-02T20:11:30.791Z,7.90
2023-04-02T20:12:03.648Z,7.40
2023-04-02T20:12:36.496Z,7.90
2023-04-02T20:13:08.990Z,8.60
2023-04-02T20:13:41.421Z,10.00
2023-04-02T20:14:13.580Z,8.40
2023-04-02T20:14:45.927Z,7.50
2023-04-02T20:15:20.232Z,7.70
2023-04-02T20:15:53.072Z,8.60
2023-04-02T20:16:25.610Z,8.10
2023-04-02T20:16:57.854Z,8.00
2023-04-02T20:17:29.981Z,7.80
2023-04-02T20:18:02.446Z,8.90
2023-04-02T20:18:36.743Z,7.70
2023-04-02T20:19:08.698Z,7.70
2023-04-02T20:19:40.941Z,8.10
2023-04-02T20:20:15.467Z,8.50
2023-04-02T20:20:48.839Z,8.10
2023-04-02T20:21:21.319Z,8.80
2023-04-02T20:21:53.348Z,7.70
2023-04-02T20:22:25.503Z,8.00
2023-04-02T20:22:57.791Z,7.80
2023-04-02T20:23:30.027Z,7.90
2023-04-02T20:24:02.402Z,8.50
2023-04-02T20:24:34.740Z,8.40
2023-04-02T20:25:07.756Z,8.60
2023-04-02T20:25:48.055Z,7.30
2023-04-02T20:26:22.113Z,7.30
2023-04-02T20:26:54.421Z,7.60
2023-04-02T20:27:26.577Z,7.40
2023-04-02T20:28:00.573Z,7.00
2023-04-02T20:28:33.433Z,7.50
2023-04-02T20:29:05.914Z,7.50
2023-04-02T20:29:39.386Z,7.90
2023-04-02T20:30:12.284Z,7.40
2023-04-02T20:30:44.653Z,7.50
2023-04-02T20:31:18.101Z,8.50
2023-04-02T20:31:50.700Z,8.30
2023-04-02T20:32:23.104Z,6.80
2023-04-02T20:32:58.541Z,8.20
2023-04-02T20:33:31.111Z,7.60
2023-04-02T20:34:05.179Z,9.60
2023-04-02T20:34:37.626Z,8.00
2023-04-02T20:35:09.852Z,8.10
2023-04-02T20:35:42.138Z,8.70
2023-04-02T20:36:18.159Z,8.80
2023-04-02T20:36:53.257Z,8.80
2023-04-02T20:37:25.437Z,8.30
2023-04-02T20:37:57.565Z,8.40
2023-04-02T20:38:31.496Z,8.80
2023-04-02T20:39:07.616Z,7.50
2023-04-02T20:39:39.554Z,8.10
2023-04-02T20:40:11.813Z,8.10
2023-04-02T20:40:45.960Z,8.70
2023-04-02T20:41:18.681Z,10.20
2023-04-02T20:41:50.841Z,9.00
2023-04-02T20:42:24.218Z,9.10
2023-04-02T20:42:56.472Z,8.60
2023-04-02T20:43:28.853Z,7.50
2023-04-02T20:44:01.714Z,7.40
2023-04-02T20:44:34.267Z,7.90
2023-04-02T20:45:08.088Z,8.10
2023-04-02T20:45:40.136Z,7.70
2023-04-02T20:46:13.254Z,7.30
2023-04-02T20:46:45.362Z,7.70
2023-04-02T20:47:18.849Z,7.10
2023-04-02T20:47:50.846Z,7.40
2023-04-02T20:48:25.244Z,6.90
2023-04-02T20:48:57.367Z,6.30
2023-04-02T20:49:29.491Z,7.30
2023-04-02T20:50:01.927Z,7.30
2023-04-02T20:50:34.630Z,5.90
2023-04-02T20:51:09.507Z,6.30
2023-04-02T20:51:41.805Z,6.90
2023-04-02T20:52:13.774Z,6.90
2023-04-02T20:52:45.937Z,5.40
2023-04-02T20:53:18.393Z,6.50
2023-04-02T20:53:50.569Z,5.70
2023-04-02T20:54:22.914Z,6.60
2023-04-02T20:54:56.669Z,5.90
2023-04-02T20:55:28.634Z,5.90
2023-04-02T20:56:07.792Z,5.90
2023-04-02T20:56:40.021Z,6.70
2023-04-02T20:57:13.390Z,6.60
2023-04-02T20:57:46.155Z,5.70
2023-04-02T20:58:18.976Z,6.30
2023-04-02T20:58:51.082Z,7.10
2023-04-02T20:59:23.257Z,5.50
2023-04-02T20:59:56.108Z,6.90
2023-04-02T21:00:28.240Z,5.80
2023-04-02T21:01:18.540Z,5.50
2023-04-02T21:01:51.056Z,5.50
2023-04-02T21:02:23.414Z,5.80
2023-04-02T21:02:57.243Z,6.10
2023-04-02T21:03:29.717Z,5.90
2023-04-02T21:04:03.926Z,7.00
2023-04-02T21:04:35.916Z,6.60
2023-04-02T21:05:08.284Z,6.70
2023-04-02T21:05:45.020Z,5.60
2023-04-02T21:06:20.788Z,5.90
2023-04-02T21:06:57.213Z,5.80
2023-04-02T21:07:29.482Z,5.80
2023-04-02T21:08:01.729Z,4.90
2023-04-02T21:08:33.874Z,5.70
2023-04-02T21:09:12.693Z,5.90
2023-04-02T21:09:44.791Z,5.40
2023-04-02T21:10:17.095Z,5.80
2023-04-02T21:10:49.443Z,5.70
2023-04-02T21:11:22.082Z,6.70
2023-04-02T21:11:54.136Z,5.60
2023-04-02T21:12:26.483Z,6.30
2023-04-02T21:12:58.333Z,5.70
2023-04-02T21:13:31.691Z,5.70
2023-04-02T21:14:03.985Z,6.40
2023-04-02T21:14:38.702Z,6.80
2023-04-02T21:15:12.474Z,6.90
2023-04-02T21:15:44.445Z,6.10
2023-04-02T21:16:28.434Z,5.60
2023-04-02T21:17:00.522Z,5.50
2023-04-02T21:17:32.586Z,6.40
2023-04-02T21:18:04.879Z,5.80
2023-04-02T21:18:37.106Z,5.80
2023-04-02T21:19:09.961Z,6.00
2023-04-02T21:19:42.020Z,5.30
2023-04-02T21:20:14.158Z,5.40
2023-04-02T21:20:59.528Z,4.80
2023-04-02T21:21:31.875Z,5.30
2023-04-02T21:22:04.039Z,5.80
2023-04-02T21:22:36.404Z,6.00
2023-04-02T21:23:08.353Z,5.80
2023-04-02T21:23:42.096Z,5.80
2023-04-02T21:24:14.315Z,5.60
2023-04-02T21:24:46.641Z,6.20
2023-04-02T21:25:19.561Z,5.30
2023-04-02T21:25:59.952Z,4.40
2023-04-02T21:26:35.461Z,6.30
2023-04-02T21:27:07.466Z,4.80
2023-04-02T21:27:39.620Z,5.30
2023-04-02T21:28:11.654Z,6.50
2023-04-02T21:28:45.069Z,6.50
2023-04-02T21:29:17.520Z,4.70
2023-04-02T21:29:49.643Z,3.90
2023-04-02T21:30:21.604Z,4.90
2023-04-02T21:31:21.527Z,3.60
2023-04-02T21:31:53.800Z,4.60
2023-04-02T21:32:26.037Z,5.00
2023-04-02T21:32:58.137Z,4.70
2023-04-02T21:33:31.836Z,4.30
2023-04-02T21:34:05.666Z,4.40
2023-04-02T21:34:37.608Z,4.20
2023-04-02T21:35:09.648Z,4.20
2023-04-02T21:35:41.755Z,4.00
2023-04-02T21:36:16.938Z,4.20
2023-04-02T21:36:50.009Z,4.10
2023-04-02T21:37:21.951Z,4.20
2023-04-02T21:37:54.142Z,4.90
2023-04-02T21:38:26.163Z,4.30
2023-04-02T21:39:00.735Z,4.90
2023-04-02T21:39:33.969Z,4.00
2023-04-02T21:40:06.860Z,4.10
2023-04-02T21:40:38.795Z,4.30
2023-04-02T21:41:19.211Z,4.00
2023-04-02T21:41:52.806Z,4.00
2023-04-02T21:42:25.586Z,4.00
2023-04-02T21:42:57.658Z,4.10
2023-04-02T21:43:29.877Z,4.50
2023-04-02T21:44:03.893Z,4.90
2023-04-02T21:44:35.925Z,4.10
2023-04-02T21:45:08.662Z,4.10
2023-04-02T21:45:40.761Z,3.20
2023-04-02T21:46:12.908Z,3.70
2023-04-02T21:46:45.838Z,4.00
2023-04-02T21:47:18.215Z,3.60
2023-04-02T21:47:50.381Z,3.50
2023-04-02T21:48:22.544Z,3.80
2023-04-02T21:48:56.555Z,3.90
2023-04-02T21:49:29.333Z,4.20
2023-04-02T21:50:01.267Z,3.50
2023-04-02T21:50:33.238Z,4.00
2023-04-02T21:51:17.494Z,3.80
2023-04-02T21:51:51.230Z,4.10
2023-04-02T21:52:23.403Z,3.80
2023-04-02T21:52:55.657Z,4.70
2023-04-02T21:53:27.698Z,3.80
2023-04-02T21:54:01.088Z,3.50
2023-04-02T21:54:33.137Z,3.30
2023-04-02T21:55:05.599Z,3.50
2023-04-02T21:55:37.646Z,3.00
2023-04-02T21:56:14.337Z,3.00
2023-04-02T21:56:46.888Z,5.10
2023-04-02T21:57:19.165Z,3.60
2023-04-02T21:57:51.701Z,3.20
2023-04-02T21:58:23.947Z,3.00
2023-04-02T21:58:57.743Z,3.50
2023-04-02T21:59:30.246Z,3.50
2023-04-02T22:00:07.826Z,3.70
2023-04-02T22:00:40.128Z,4.10
2023-04-02T22:01:23.774Z,3.40
2023-04-02T22:01:59.369Z,3.30
2023-04-02T22:02:31.271Z,3.60